Nearby METAR Reports

KBED - Bedford,MA, USA
Distance from station: S 11mi, 18km
Updated: Fri, 24-Sep-2021 9:51pm EDT
Overcast
Overcast
 Wind from calm
Wind: Calm
Temperature: 66°F , 19°C
Dew Point: 61°F , 16°C
Humidity: 83%
Barometer: 30.03 inHg , 1016.9 hPa
Clouds: Overcast
Visibility: 10 miles , 16 km
Cloud details: Partly Cloudy 3900 ft
Overcast 6000 ft
2021/09/25 01:51 KBED 250151Z 00000KT 10SM SCT039 OVC060 19/16 A3003 RMK AO2 SLP180 T01940156
KLWM - Lawrence,MA, USA
Distance from station: ENE 12mi, 19km
Updated: Fri, 24-Sep-2021 9:54pm EDT
Overcast
Overcast
 Wind from SW
Wind: SW 6 mph , 9 km/h
Temperature: 68°F , 20°C
Dew Point: 57°F , 14°C
Humidity: 69%
Barometer: 30.06 inHg , 1017.9 hPa
Clouds: Overcast
Visibility: 10 miles , 16 km
Cloud details: Few Clouds 4000 ft
Few Clouds 5000 ft
Overcast 6500 ft
2021/09/25 01:54 KLWM 250154Z 23005KT 10SM FEW040 FEW050 OVC065 20/14 A3006 RMK AO2 SLP178 T02000144
 
KASH - Nashua,NH, USA
Distance from station: NW 14mi, 23km
Updated: Fri, 24-Sep-2021 9:56pm EDT
Overcast
Overcast
 Wind from calm
Wind: Calm
Temperature: 64°F , 18°C
Dew Point: 64°F , 18°C
Humidity: 100%
Barometer: 30.05 inHg , 1017.6 hPa
Clouds: Overcast
Visibility: 10 miles , 16 km
Cloud details: Overcast 5000 ft
2021/09/25 01:56 KASH 250156Z AUTO 00000KT 10SM OVC050 18/18 A3005 RMK AO2 SLP179 T01830178
KFIT - Fitchburg, MA, USA
Distance from station: WSW 22mi, 35km
Updated: Fri, 24-Sep-2021 9:52pm EDT
Overcast
Overcast
 Wind from N
Wind: N 3 mph , 6 km/h
Temperature: 64°F , 18°C
Dew Point: 59°F , 15°C
Humidity: 83%
Barometer: 30.05 inHg , 1017.6 hPa
Clouds: Overcast
Visibility: 10 miles , 16 km
Cloud details: Mostly Cloudy 4700 ft
Overcast 7000 ft
2021/09/25 01:52 KFIT 250152Z AUTO 01003KT 10SM BKN047 OVC070 18/15 A3005 RMK AO2 SLP175 T01830150

Metar display script from Saratoga-Weather.org